Time;durP1;ratioP1;P1;durP2;ratioP2;P2;SDS_P1;SDS_P2;PMS_P1;PMS_P2;Temp;Humidity;BMP_temperature;BMP_pressure;BME280_temperature;BME280_humidity;BME280_pressure;Samples;Min_cycle;Max_cycle;Signal;HPM_P1;HPM_P2
2022/03/30 00:00:06;;;;;;;12.00;6.17;;;;;;;19.41;50.76;99127.31;5013404;28;20467;-61
2022/03/30 00:02:32;;;;;;;7.90;5.50;;;;;;;19.41;50.95;99145.28;5031345;28;20463;-61
2022/03/30 00:04:57;;;;;;;8.20;6.13;;;;;;;19.42;51.02;99143.25;5031301;28;20431;-61
2022/03/30 00:07:23;;;;;;;9.70;6.53;;;;;;;19.42;51.04;99140.38;5031916;28;20183;-61
2022/03/30 00:09:49;;;;;;;10.47;6.80;;;;;;;19.40;50.71;99126.47;5031244;28;20168;-61
2022/03/30 00:12:14;;;;;;;9.20;5.83;;;;;;;19.41;51.31;99125.25;5031616;28;20181;-61
2022/03/30 00:14:40;;;;;;;10.63;6.17;;;;;;;19.41;50.87;99128.09;5031224;28;20172;-61
2022/03/30 00:17:05;;;;;;;9.67;5.97;;;;;;;19.40;51.07;99126.47;5031446;28;20188;-61
2022/03/30 00:19:31;;;;;;;10.43;5.70;;;;;;;19.41;51.22;99128.09;5031511;28;20290;-61
2022/03/30 00:21:57;;;;;;;8.40;5.63;;;;;;;19.41;51.71;99110.94;5031648;28;20208;-61
2022/03/30 00:24:23;;;;;;;7.73;5.53;;;;;;;19.39;50.91;99107.69;5031649;28;20447;-61
2022/03/30 00:26:48;;;;;;;7.73;6.00;;;;;;;19.40;51.03;99106.44;5031424;28;20184;-61
2022/03/30 00:29:14;;;;;;;9.80;5.80;;;;;;;19.40;51.09;99117.91;5031282;28;20173;-61
2022/03/30 00:31:40;;;;;;;9.93;6.17;;;;;;;19.41;51.65;99110.13;5031619;28;20238;-61
2022/03/30 00:34:05;;;;;;;9.73;5.80;;;;;;;19.40;51.12;99103.59;5031101;28;20643;-61
2022/03/30 00:36:31;;;;;;;9.23;6.00;;;;;;;19.40;51.04;99100.72;5030796;28;20184;-62
2022/03/30 00:38:56;;;;;;;10.33;6.03;;;;;;;19.40;50.78;99103.59;5031142;28;20200;-61
2022/03/30 00:41:22;;;;;;;9.53;5.73;;;;;;;19.41;50.96;99098.69;5031448;28;20226;-61
2022/03/30 00:43:47;;;;;;;9.47;5.87;;;;;;;19.41;51.20;99093.75;5031232;28;20181;-61
2022/03/30 00:46:13;;;;;;;7.23;5.20;;;;;;;19.41;51.20;99092.97;5030918;28;20196;-61
2022/03/30 00:48:39;;;;;;;7.90;5.20;;;;;;;19.43;51.04;99088.44;5031181;28;20187;-61
2022/03/30 00:51:08;;;;;;;9.03;6.40;;;;;;;19.41;50.96;99095.81;5031369;28;20204;-61
2022/03/30 00:53:34;;;;;;;9.40;5.63;;;;;;;19.40;50.99;99092.13;5031284;28;20461;-61
2022/03/30 00:55:59;;;;;;;8.73;6.07;;;;;;;19.42;51.00;99086.78;5031490;28;20423;-61
2022/03/30 00:58:25;;;;;;;10.93;6.17;;;;;;;19.42;51.21;99089.66;5030527;28;20256;-61
2022/03/30 01:00:51;;;;;;;8.90;6.13;;;;;;;19.42;51.46;99088.88;5030681;28;20180;-61
2022/03/30 01:03:16;;;;;;;8.90;5.50;;;;;;;19.41;51.48;99092.97;5031306;28;20446;-61
2022/03/30 01:05:42;;;;;;;8.57;5.40;;;;;;;19.42;51.08;99077.41;5030902;28;20558;-61
2022/03/30 01:08:08;;;;;;;7.50;5.53;;;;;;;19.42;51.17;99074.56;5030920;28;20409;-61
2022/03/30 01:10:33;;;;;;;8.30;5.63;;;;;;;19.42;51.54;99080.28;5030571;28;20218;-62
2022/03/30 01:13:00;;;;;;;8.60;6.03;;;;;;;19.43;51.24;99073.31;5034401;28;20176;-61
2022/03/30 01:15:25;;;;;;;7.00;5.17;;;;;;;19.41;51.05;99065.13;5034304;28;20263;-61
2022/03/30 01:17:51;;;;;;;9.53;5.90;;;;;;;19.43;51.23;99056.97;5034520;28;20442;-61
2022/03/30 01:20:18;;;;;;;8.17;6.10;;;;;;;19.42;51.65;99045.94;5034447;28;20185;-61
2022/03/30 01:22:43;;;;;;;8.80;6.20;;;;;;;19.42;51.26;99043.88;5034678;28;20230;-61
2022/03/30 01:25:09;;;;;;;7.50;5.73;;;;;;;19.43;51.74;99045.53;5034157;28;20415;-61
2022/03/30 01:27:35;;;;;;;10.00;5.40;;;;;;;19.44;51.57;99040.59;5034422;28;20254;-61
2022/03/30 01:32:55;;;;;;;9.20;5.57;;;;;;;19.42;51.26;99028.75;5034368;28;20227;-61
2022/03/30 01:35:20;;;;;;;9.63;5.93;;;;;;;19.41;51.26;99022.22;5034342;28;20545;-61
2022/03/30 01:37:46;;;;;;;7.10;4.93;;;;;;;19.42;51.52;99026.69;5034248;28;20477;-61
2022/03/30 01:40:12;;;;;;;12.10;6.40;;;;;;;19.41;51.67;99010.75;5033817;28;20209;-61
2022/03/30 01:42:38;;;;;;;8.27;5.70;;;;;;;19.42;51.43;99008.72;5034432;28;20549;-61
2022/03/30 01:45:03;;;;;;;9.53;5.50;;;;;;;19.40;51.32;98997.69;5033814;28;20430;-61
2022/03/30 01:47:29;;;;;;;7.40;5.07;;;;;;;19.42;51.43;98997.28;5034062;28;20822;-61
2022/03/30 01:49:54;;;;;;;7.03;4.67;;;;;;;19.39;51.35;98992.38;5033920;28;20580;-61
2022/03/30 01:52:20;;;;;;;8.70;5.53;;;;;;;19.42;51.46;98989.47;5034031;28;20634;-61
2022/03/30 01:54:45;;;;;;;7.63;4.97;;;;;;;19.43;51.22;98985.41;5033420;28;20543;-61
2022/03/30 01:57:14;;;;;;;7.13;4.97;;;;;;;19.43;51.52;98988.28;5033873;28;20181;-61
2022/03/30 01:59:41;;;;;;;9.43;6.07;;;;;;;19.42;51.43;98980.09;5033777;28;20246;-61
2022/03/30 02:02:07;;;;;;;8.23;6.00;;;;;;;19.41;51.15;98973.56;5033470;28;20790;-61
2022/03/30 02:04:34;;;;;;;7.00;5.07;;;;;;;19.41;51.23;98973.56;5033429;28;20423;-61
2022/03/30 02:07:01;;;;;;;6.33;4.97;;;;;;;19.42;51.34;98985.81;5033582;28;20415;-61
2022/03/30 02:09:27;;;;;;;8.80;5.37;;;;;;;19.40;52.01;98991.97;5033717;28;20419;-61
2022/03/30 02:11:54;;;;;;;8.63;5.37;;;;;;;19.40;51.42;99003.41;5033380;28;20754;-61
2022/03/30 02:14:20;;;;;;;6.87;4.97;;;;;;;19.39;51.47;99001.78;5033456;28;20176;-61
2022/03/30 02:16:45;;;;;;;8.97;5.60;;;;;;;19.39;51.49;98998.94;5033229;28;20422;-61
2022/03/30 02:19:11;;;;;;;9.17;5.33;;;;;;;19.41;51.45;99004.25;5033160;28;20609;-61
2022/03/30 02:21:37;;;;;;;11.43;5.53;;;;;;;19.40;51.86;98994.00;5033186;28;20176;-61
2022/03/30 02:24:02;;;;;;;7.07;5.03;;;;;;;19.39;51.75;98992.38;5033051;28;20172;-61
2022/03/30 02:26:30;;;;;;;9.70;5.40;;;;;;;19.41;51.41;98998.50;5032807;28;20267;-61
2022/03/30 02:28:55;;;;;;;6.87;5.50;;;;;;;19.40;51.65;98986.25;5033611;28;20169;-61
2022/03/30 02:31:21;;;;;;;5.90;4.23;;;;;;;19.41;51.57;98995.66;5033016;28;20427;-61
2022/03/30 02:33:47;;;;;;;9.47;5.37;;;;;;;19.42;51.54;98982.97;5033553;28;20245;-61
2022/03/30 02:36:13;;;;;;;7.30;5.00;;;;;;;19.39;51.55;98987.47;5032948;28;20302;-62
2022/03/30 02:38:39;;;;;;;6.73;4.63;;;;;;;19.39;51.42;98980.91;5033269;28;20262;-61
2022/03/30 02:41:06;;;;;;;7.53;4.80;;;;;;;19.42;51.66;98985.81;5032364;28;20514;-61
2022/03/30 02:43:31;;;;;;;6.10;4.77;;;;;;;19.40;51.52;98977.66;5033278;28;20430;-61
2022/03/30 02:45:57;;;;;;;6.87;4.60;;;;;;;19.41;51.63;98978.47;5032739;28;20443;-61
2022/03/30 02:48:22;;;;;;;6.67;4.80;;;;;;;19.40;51.41;98983.38;5032893;28;20816;-61
2022/03/30 02:50:51;;;;;;;6.63;4.70;;;;;;;19.40;51.47;98994.00;5032618;28;20246;-61
2022/03/30 02:53:17;;;;;;;7.60;5.33;;;;;;;19.42;51.62;98997.28;5032700;28;20691;-61
2022/03/30 02:55:43;;;;;;;8.30;4.97;;;;;;;19.40;51.61;99003.41;5032361;28;20404;-61
2022/03/30 02:58:09;;;;;;;7.80;4.80;;;;;;;19.39;51.69;99004.66;5032408;28;20631;-61
2022/03/30 03:00:35;;;;;;;8.70;5.23;;;;;;;19.38;51.49;98996.47;5032281;28;20204;-61
2022/03/30 03:03:02;;;;;;;7.00;5.30;;;;;;;19.39;51.45;99004.66;5032450;28;20489;-61
2022/03/30 03:05:33;;;;;;;8.17;4.87;;;;;;;19.38;51.49;99005.88;5032572;28;20452;-61
2022/03/30 03:08:01;;;;;;;7.13;4.93;;;;;;;19.40;51.80;99009.13;5032592;28;20455;-61
2022/03/30 03:10:27;;;;;;;7.87;4.40;;;;;;;19.41;51.62;99010.75;5032032;28;20787;-61
2022/03/30 03:12:53;;;;;;;5.87;4.40;;;;;;;19.41;52.22;99005.03;5031152;28;20419;-61
2022/03/30 03:15:19;;;;;;;7.50;4.70;;;;;;;19.38;51.58;99007.91;5014347;28;20255;-61
2022/03/30 03:17:44;;;;;;;6.53;4.80;;;;;;;19.40;51.99;99009.13;5032642;28;20271;-61
2022/03/30 03:20:11;;;;;;;5.80;4.53;;;;;;;19.40;51.45;98996.84;5031331;28;20200;-61
2022/03/30 03:22:37;;;;;;;8.20;4.73;;;;;;;19.40;51.53;99003.41;5032350;28;20207;-61
2022/03/30 03:25:03;;;;;;;6.90;4.40;;;;;;;19.39;51.64;98998.94;5032206;28;20431;-61
2022/03/30 03:27:29;;;;;;;9.10;4.77;;;;;;;19.40;51.53;98991.97;5032429;28;20176;-61
2022/03/30 03:29:54;;;;;;;6.50;4.87;;;;;;;19.38;51.64;99002.19;5032265;28;20199;-61
2022/03/30 03:32:20;;;;;;;6.30;4.93;;;;;;;19.37;51.61;98995.66;5032003;28;20255;-61
2022/03/30 03:34:45;;;;;;;8.30;5.10;;;;;;;19.38;51.87;98983.00;5031327;28;20206;-61
2022/03/30 03:37:11;;;;;;;6.07;4.13;;;;;;;19.38;51.76;98996.47;5031992;28;20187;-61
2022/03/30 03:39:36;;;;;;;6.40;4.57;;;;;;;19.38;51.94;98994.44;5031835;28;20200;-61
2022/03/30 03:42:02;;;;;;;7.30;5.03;;;;;;;19.37;51.66;98989.91;5031796;28;20218;-61
2022/03/30 03:44:27;;;;;;;10.87;5.10;;;;;;;19.37;51.60;98981.34;5032008;28;20200;-61
2022/03/30 03:46:54;;;;;;;5.47;4.47;;;;;;;19.37;51.75;98981.34;5031629;28;20715;-61
2022/03/30 03:49:20;;;;;;;6.77;4.60;;;;;;;19.37;51.55;98978.47;5031472;28;20663;-61
2022/03/30 03:51:46;;;;;;;5.90;4.70;;;;;;;19.37;51.98;98978.47;5031663;28;20422;-61
2022/03/30 03:54:11;;;;;;;6.90;4.53;;;;;;;19.37;51.73;98978.47;5030662;28;20434;-61
2022/03/30 03:56:37;;;;;;;6.73;4.60;;;;;;;19.38;51.66;98970.72;5031699;28;20219;-61
2022/03/30 03:59:03;;;;;;;7.30;4.27;;;;;;;19.39;52.30;98961.72;5031542;28;20279;-61
2022/03/30 04:01:29;;;;;;;5.43;4.73;;;;;;;19.38;51.84;98965.00;5031503;28;20176;-61
2022/03/30 04:03:55;;;;;;;7.20;4.70;;;;;;;19.37;51.64;98961.31;5031708;28;20415;-61
2022/03/30 04:06:21;;;;;;;7.60;4.97;;;;;;;19.39;52.07;98967.44;5031155;28;20480;-61
2022/03/30 04:08:48;;;;;;;5.60;4.37;;;;;;;19.39;51.62;98969.47;5031104;28;20173;-61
2022/03/30 04:11:13;;;;;;;7.67;5.10;;;;;;;19.37;51.97;98963.38;5031518;28;20411;-61
2022/03/30 04:13:39;;;;;;;7.20;5.53;;;;;;;19.39;52.11;98960.88;5031244;28;20411;-61
2022/03/30 04:16:05;;;;;;;6.17;4.27;;;;;;;19.38;51.93;98950.69;5031273;28;20175;-61
2022/03/30 04:18:30;;;;;;;6.50;4.33;;;;;;;19.36;51.71;98953.16;5031178;28;20183;-61
2022/03/30 04:20:56;;;;;;;7.73;5.00;;;;;;;19.37;51.67;98952.72;5030051;28;20191;-61
2022/03/30 04:23:21;;;;;;;7.37;4.57;;;;;;;19.39;52.08;98952.31;5031076;28;20897;-61
2022/03/30 04:25:46;;;;;;;7.17;4.43;;;;;;;19.37;52.19;98949.84;5031409;28;20168;-61
2022/03/30 04:28:14;;;;;;;6.17;4.40;;;;;;;19.36;52.11;98948.22;5031295;28;20181;-61
2022/03/30 04:30:40;;;;;;;7.33;5.20;;;;;;;19.38;52.18;98940.06;5031333;28;20178;-61
2022/03/30 04:33:05;;;;;;;9.47;4.80;;;;;;;19.39;51.63;98930.22;5031077;28;20419;-61
2022/03/30 04:35:31;;;;;;;6.17;4.60;;;;;;;19.37;51.87;98929.81;5030912;28;20288;-61
2022/03/30 04:37:56;;;;;;;5.17;4.20;;;;;;;19.38;52.06;98927.78;5031214;28;20180;-61
2022/03/30 04:40:23;;;;;;;5.80;4.50;;;;;;;19.37;51.76;98926.97;5031393;28;20204;-61
2022/03/30 04:42:51;;;;;;;5.93;3.90;;;;;;;19.38;51.92;98928.63;5031341;28;20176;-61
2022/03/30 04:45:17;;;;;;;7.30;4.23;;;;;;;19.37;52.15;98926.97;5032022;28;20447;-61
2022/03/30 04:47:43;;;;;;;5.50;4.20;;;;;;;19.37;51.54;98924.09;5034686;28;20533;-61
2022/03/30 04:50:09;;;;;;;6.83;4.77;;;;;;;19.37;52.03;98918.38;5035142;28;20407;-61
2022/03/30 04:52:38;;;;;;;5.43;3.83;;;;;;;19.38;51.86;98917.16;5035039;28;20242;-61
2022/03/30 04:55:05;;;;;;;7.30;4.33;;;;;;;19.38;52.15;98914.31;5034930;28;20415;-61
2022/03/30 04:57:30;;;;;;;6.87;4.37;;;;;;;19.39;51.75;98913.06;5034393;28;20423;-61
2022/03/30 04:59:56;;;;;;;7.47;4.70;;;;;;;19.38;52.57;98911.44;5034819;28;20466;-61
2022/03/30 05:02:22;;;;;;;5.90;4.17;;;;;;;19.38;52.64;98905.72;5034627;28;20168;-61
2022/03/30 05:04:47;;;;;;;6.00;4.43;;;;;;;19.40;51.92;98906.09;5034822;28;20180;-61
2022/03/30 05:07:14;;;;;;;6.37;4.50;;;;;;;19.37;51.77;98901.19;5034293;28;20430;-61
2022/03/30 05:09:39;;;;;;;6.73;4.63;;;;;;;19.39;52.23;98903.66;5034766;28;20200;-61
2022/03/30 05:12:05;;;;;;;5.43;4.20;;;;;;;19.38;51.97;98902.84;5034221;28;20450;-61
2022/03/30 05:14:32;;;;;;;5.80;3.80;;;;;;;19.38;51.77;98900.00;5034719;28;20200;-61
2022/03/30 05:16:58;;;;;;;4.53;3.70;;;;;;;19.37;51.90;98901.19;5034008;28;20190;-61
2022/03/30 05:19:24;;;;;;;5.40;4.10;;;;;;;19.38;51.84;98899.16;5034777;28;20553;-61
2022/03/30 05:21:49;;;;;;;5.63;4.20;;;;;;;19.38;51.85;98899.16;5034532;28;20870;-61
2022/03/30 05:24:15;;;;;;;5.93;4.10;;;;;;;19.38;51.80;98894.28;5034540;28;20168;-61
2022/03/30 05:26:40;;;;;;;5.90;4.40;;;;;;;19.38;51.46;98885.69;5034320;28;20238;-61
2022/03/30 05:29:05;;;;;;;5.53;4.50;;;;;;;19.38;51.93;98882.81;5034610;28;20702;-61
2022/03/30 05:31:31;;;;;;;5.20;3.50;;;;;;;19.40;52.08;98891.78;5034051;28;20179;-61
2022/03/30 05:33:56;;;;;;;7.03;4.10;;;;;;;19.40;51.88;98883.19;5034572;28;20176;-61
2022/03/30 05:36:22;;;;;;;7.40;4.70;;;;;;;19.37;52.08;98875.44;5034276;28;20664;-61
2022/03/30 05:38:48;;;;;;;5.60;3.83;;;;;;;19.39;51.94;98884.44;5034156;28;20235;-61
2022/03/30 05:41:14;;;;;;;5.77;4.00;;;;;;;19.39;52.18;98877.91;5034106;28;20565;-61
2022/03/30 05:43:39;;;;;;;5.60;4.43;;;;;;;19.38;51.85;98882.81;5016306;28;20843;-61
2022/03/30 05:46:06;;;;;;;5.43;4.10;;;;;;;19.40;51.88;98880.34;5033613;28;20447;-61
2022/03/30 05:48:31;;;;;;;7.23;4.73;;;;;;;19.39;51.88;98883.63;5016465;28;20176;-61
2022/03/30 05:50:58;;;;;;;5.90;3.77;;;;;;;19.39;51.91;98872.16;5034183;28;20411;-61
2022/03/30 05:53:24;;;;;;;5.83;4.00;;;;;;;19.39;52.27;98877.91;5016420;28;20173;-61
2022/03/30 05:55:49;;;;;;;5.67;4.13;;;;;;;19.39;51.82;98878.72;5034069;28;20419;-61
2022/03/30 05:58:15;;;;;;;5.03;4.00;;;;;;;19.40;52.26;98879.50;5033192;28;20473;-61
2022/03/30 06:00:41;;;;;;;5.60;3.90;;;;;;;19.40;52.20;98868.06;5033443;28;20698;-61
2022/03/30 06:03:06;;;;;;;5.70;3.97;;;;;;;19.40;51.87;98868.91;5032214;28;20187;-61
2022/03/30 06:05:32;;;;;;;5.43;4.17;;;;;;;19.39;51.94;98877.91;5033663;28;20588;-61
2022/03/30 06:07:59;;;;;;;4.80;3.87;;;;;;;19.41;51.96;98869.72;5033848;28;20153;-61
2022/03/30 06:10:27;;;;;;;5.77;4.30;;;;;;;19.41;51.93;98876.25;5033612;28;20183;-61
2022/03/30 06:12:54;;;;;;;5.20;3.63;;;;;;;19.43;51.81;98870.09;5033518;28;20415;-61
2022/03/30 06:15:20;;;;;;;5.53;3.70;;;;;;;19.41;52.25;98872.59;5033145;28;20438;-62
2022/03/30 06:17:47;;;;;;;5.93;4.10;;;;;;;19.39;51.87;98870.13;5033435;28;20419;-62
2022/03/30 06:20:13;;;;;;;4.97;3.80;;;;;;;19.41;52.33;98869.72;5015426;28;20208;-62
2022/03/30 06:22:41;;;;;;;6.63;3.43;;;;;;;19.40;51.89;98868.06;5033757;28;20511;-62
2022/03/30 06:25:07;;;;;;;5.30;4.00;;;;;;;19.42;52.12;98866.41;5033332;28;20423;-62
2022/03/30 06:27:33;;;;;;;5.10;3.83;;;;;;;19.39;52.07;98867.28;5033256;28;20936;-62
2022/03/30 06:29:58;;;;;;;4.80;3.80;;;;;;;19.39;51.88;98863.59;5033050;28;20411;-62
2022/03/30 06:32:24;;;;;;;5.97;4.07;;;;;;;19.39;51.83;98873.00;5032750;28;20172;-62
2022/03/30 06:34:49;;;;;;;5.20;3.50;;;;;;;19.39;51.91;98870.13;5033118;28;20187;-62
2022/03/30 06:37:14;;;;;;;4.50;3.37;;;;;;;19.40;51.90;98868.91;5032830;28;20176;-62
2022/03/30 06:39:40;;;;;;;5.00;4.20;;;;;;;19.40;51.92;98865.19;5032202;28;20610;-62
2022/03/30 06:42:06;;;;;;;6.07;3.60;;;;;;;19.39;51.96;98864.41;5032474;28;20179;-62
2022/03/30 06:44:32;;;;;;;5.67;3.90;;;;;;;19.40;51.79;98865.19;5031969;28;20180;-62
2022/03/30 06:46:58;;;;;;;6.13;4.40;;;;;;;19.38;51.99;98865.66;5031634;28;20224;-62
2022/03/30 06:49:23;;;;;;;5.30;3.73;;;;;;;19.38;52.00;98859.94;5033109;28;20473;-62
2022/03/30 06:51:48;;;;;;;4.87;3.83;;;;;;;19.40;52.50;98863.16;5032508;28;20423;-62
2022/03/30 06:54:14;;;;;;;5.60;3.70;;;;;;;19.39;52.16;98852.13;5015234;28;20211;-62
2022/03/30 06:56:40;;;;;;;5.30;3.60;;;;;;;19.41;52.09;98855.41;5032485;28;20604;-62
2022/03/30 06:59:05;;;;;;;6.03;3.80;;;;;;;19.40;52.03;98848.03;5032543;28;20258;-62
2022/03/30 07:01:31;;;;;;;4.90;4.00;;;;;;;19.41;52.29;98849.69;5032718;28;20565;-62
2022/03/30 07:03:56;;;;;;;7.53;4.20;;;;;;;19.42;52.03;98851.31;5032639;28;20178;-62
2022/03/30 07:06:22;;;;;;;4.90;3.93;;;;;;;19.41;51.92;98849.69;5032232;28;20180;-62
2022/03/30 07:11:31;;;;;;;4.30;3.40;;;;;;;19.41;52.22;98846.81;5012680;28;20295;-62
2022/03/30 07:13:59;;;;;;;4.67;3.30;;;;;;;19.40;52.07;98848.84;5012789;28;20494;-62
2022/03/30 07:16:25;;;;;;;4.73;3.30;;;;;;;19.39;52.03;98832.94;5030586;28;20172;-62
2022/03/30 07:18:51;;;;;;;5.97;3.63;;;;;;;19.40;52.04;98840.28;5031935;28;20557;-62
2022/03/30 07:21:16;;;;;;;4.40;3.13;;;;;;;19.39;52.07;98838.66;5032261;28;20419;-62
2022/03/30 07:23:42;;;;;;;6.10;3.90;;;;;;;19.40;52.07;98839.44;5032366;28;20213;-62
2022/03/30 07:26:07;;;;;;;5.57;4.10;;;;;;;19.41;51.91;98841.91;5031393;28;20176;-62
2022/03/30 07:28:35;;;;;;;5.70;3.27;;;;;;;19.39;52.10;98841.50;5024537;28;20648;-62
2022/03/30 07:31:01;;;;;;;7.60;4.10;;;;;;;19.40;52.16;98837.41;5012455;28;20169;-62
2022/03/30 07:33:26;;;;;;;4.40;3.67;;;;;;;19.40;51.99;98840.28;5012270;28;20956;-62
2022/03/30 07:35:51;;;;;;;5.30;4.03;;;;;;;19.42;51.95;98837.78;5026084;28;20513;-62
2022/03/30 07:38:18;;;;;;;6.73;3.80;;;;;;;19.40;51.99;98840.28;5032014;28;20175;-62
2022/03/30 07:40:45;;;;;;;5.90;3.53;;;;;;;19.41;51.95;98838.25;5031968;28;20185;-62
2022/03/30 07:43:12;;;;;;;4.87;3.70;;;;;;;19.41;52.09;98833.31;5031917;28;20404;-62
2022/03/30 07:45:37;;;;;;;4.63;3.57;;;;;;;19.42;52.04;98834.94;5031794;28;20443;-62
2022/03/30 07:48:03;;;;;;;4.40;3.43;;;;;;;19.42;52.25;98834.94;5031462;28;20463;-62
2022/03/30 07:50:29;;;;;;;5.30;3.70;;;;;;;19.41;51.86;98833.31;5031791;28;20581;-62
2022/03/30 07:52:54;;;;;;;4.60;3.70;;;;;;;19.42;52.00;98839.84;5032222;28;20183;-62
2022/03/30 07:55:20;;;;;;;5.20;3.63;;;;;;;19.41;51.94;98836.16;5031685;28;20177;-62
2022/03/30 07:57:46;;;;;;;4.47;3.30;;;;;;;19.42;51.96;98837.78;5031872;28;20184;-62
2022/03/30 08:00:16;;;;;;;5.00;3.73;;;;;;;19.42;51.95;98837.00;5031449;28;20204;-62
2022/03/30 08:02:42;;;;;;;5.90;3.70;;;;;;;19.43;52.02;98842.31;5014481;28;20759;-62
2022/03/30 08:05:12;;;;;;;5.50;3.50;;;;;;;19.43;52.43;98844.34;5031494;28;20518;-62
2022/03/30 08:07:38;;;;;;;4.67;3.23;;;;;;;19.43;52.07;98836.59;5032270;28;20462;-62
2022/03/30 08:10:04;;;;;;;5.57;3.33;;;;;;;19.42;51.93;98846.38;5031006;28;20507;-62
2022/03/30 08:12:30;;;;;;;4.57;3.47;;;;;;;19.41;52.22;98847.63;5031826;28;20417;-62
2022/03/30 08:14:55;;;;;;;5.80;4.13;;;;;;;19.41;52.35;98853.34;5031456;28;20222;-62
2022/03/30 08:17:21;;;;;;;6.10;3.90;;;;;;;19.43;51.98;98861.50;5031207;28;20181;-62
2022/03/30 08:19:46;;;;;;;4.30;3.17;;;;;;;19.40;52.10;98851.72;5031946;28;20196;-62
2022/03/30 08:22:28;;;;;;;6.20;4.37;;;;;;;19.40;51.97;98856.63;5037766;28;20172;-62
2022/03/30 08:25:00;;;;;;;4.87;3.60;;;;;;;19.40;52.51;98848.03;5037731;28;20250;-62
2022/03/30 08:27:27;;;;;;;5.10;3.27;;;;;;;19.39;52.23;98852.13;5038194;28;20422;-62
2022/03/30 08:29:52;;;;;;;4.53;3.30;;;;;;;19.39;52.07;98849.28;5037664;28;20514;-62
2022/03/30 08:32:18;;;;;;;4.17;3.17;;;;;;;19.38;52.24;98853.38;5038157;28;20415;-62
2022/03/30 08:34:44;;;;;;;5.20;3.67;;;;;;;19.37;52.59;98852.56;5037809;28;20180;-62
2022/03/30 08:37:10;;;;;;;5.27;3.30;;;;;;;19.39;52.16;98855.00;5020079;28;20180;-62
2022/03/30 08:39:36;;;;;;;4.80;3.63;;;;;;;19.37;52.29;98846.81;5037749;28;20208;-62
2022/03/30 08:42:05;;;;;;;6.00;3.53;;;;;;;19.37;52.03;98852.56;5038007;28;20176;-62
2022/03/30 08:44:31;;;;;;;3.83;3.00;;;;;;;19.38;52.14;98844.78;5035217;28;20238;-62
2022/03/30 08:46:57;;;;;;;5.00;3.37;;;;;;;19.37;52.10;98852.56;5037676;28;20451;-62
2022/03/30 08:49:22;;;;;;;6.80;3.50;;;;;;;19.37;52.30;98846.03;5037858;28;20469;-62
2022/03/30 08:51:49;;;;;;;4.97;3.10;;;;;;;19.38;52.21;98841.94;5037782;28;20184;-62
2022/03/30 08:54:16;;;;;;;4.40;3.33;;;;;;;19.38;52.24;98847.66;5037699;28;20260;-62
2022/03/30 08:56:41;;;;;;;5.07;3.23;;;;;;;19.37;52.48;98851.75;5037343;28;20438;-62
2022/03/30 08:59:08;;;;;;;4.57;3.73;;;;;;;19.34;52.25;98852.59;5037515;28;20454;-62
2022/03/30 09:01:35;;;;;;;4.87;3.30;;;;;;;19.36;52.21;98850.94;5037908;28;20236;-62
2022/03/30 09:04:01;;;;;;;4.10;2.93;;;;;;;19.38;51.97;98851.34;5019960;28;20415;-62
2022/03/30 09:06:34;;;;;;;5.77;3.50;;;;;;;19.38;52.04;98854.22;5037429;28;20430;-62
2022/03/30 09:08:59;;;;;;;5.47;3.60;;;;;;;19.38;52.03;98854.22;5037176;28;20427;-62
2022/03/30 09:11:32;;;;;;;4.90;3.40;;;;;;;19.39;52.16;98855.00;5037076;28;20767;-62
2022/03/30 09:14:04;;;;;;;5.27;3.67;;;;;;;19.37;52.46;98852.56;5037250;28;20518;-62
2022/03/30 09:16:49;;;;;;;5.17;3.83;;;;;;;19.38;52.23;98854.22;5003808;28;20415;-62
2022/03/30 09:19:17;;;;;;;4.47;3.37;;;;;;;19.38;52.00;98854.22;5037666;28;20930;-62
2022/03/30 09:21:50;;;;;;;4.93;3.30;;;;;;;19.38;52.25;98847.66;5037437;28;20426;-62
2022/03/30 09:24:18;;;;;;;4.70;3.73;;;;;;;19.38;52.15;98839.91;5037455;28;20407;-62
2022/03/30 09:26:43;;;;;;;4.70;3.20;;;;;;;19.38;52.13;98842.75;5019870;28;20415;-62
2022/03/30 09:29:09;;;;;;;4.60;3.40;;;;;;;19.37;52.06;98846.03;5037900;28;20773;-62
2022/03/30 09:31:36;;;;;;;5.20;3.53;;;;;;;19.37;52.14;98841.09;5035708;28;20217;-62
2022/03/30 09:34:05;;;;;;;4.00;3.27;;;;;;;19.38;52.05;98850.53;5034296;28;20415;-62
2022/03/30 09:36:35;;;;;;;5.13;3.27;;;;;;;19.39;52.01;98847.25;5033949;28;20419;-62
2022/03/30 09:39:01;;;;;;;5.27;3.67;;;;;;;19.39;52.40;98846.41;5034126;28;20451;-62
2022/03/30 09:41:26;;;;;;;5.40;3.77;;;;;;;19.37;52.12;98841.09;5033958;28;20504;-62
2022/03/30 09:44:03;;;;;;;4.90;3.17;;;;;;;19.35;52.02;98843.59;5016707;28;20176;-62
2022/03/30 09:46:28;;;;;;;6.10;3.10;;;;;;;19.34;52.03;98841.97;5033685;28;20691;-61
2022/03/30 09:48:54;;;;;;;4.40;3.20;;;;;;;19.36;52.36;98839.47;5033977;28;20427;-61
2022/03/30 09:51:22;;;;;;;5.23;4.00;;;;;;;19.36;52.04;98836.63;5033755;28;20211;-62
2022/03/30 09:53:48;;;;;;;5.03;3.40;;;;;;;19.34;52.59;98829.69;5034255;28;20784;-62
2022/03/30 09:56:20;;;;;;;4.53;3.20;;;;;;;19.35;52.20;98839.91;5033913;28;20466;-62
2022/03/30 09:58:46;;;;;;;5.07;3.40;;;;;;;19.36;52.21;98835.84;5033895;28;20189;-62
2022/03/30 10:01:17;;;;;;;5.10;3.83;;;;;;;19.34;52.23;98833.38;5033748;28;20419;-62
2022/03/30 10:04:12;;;;;;;6.70;3.97;;;;;;;19.35;52.27;98826.41;5033730;28;20184;-62
2022/03/30 10:06:40;;;;;;;4.67;3.37;;;;;;;19.37;52.18;98834.59;5007517;28;20517;-62
2022/03/30 10:09:06;;;;;;;5.93;3.47;;;;;;;19.36;52.59;98832.97;5033702;28;21150;-62
2022/03/30 10:11:31;;;;;;;10.10;3.50;;;;;;;19.37;52.35;98823.13;5033518;28;20416;-62
2022/03/30 10:13:59;;;;;;;5.30;3.27;;;;;;;19.40;52.08;98828.00;5033533;28;20177;-62
2022/03/30 10:16:25;;;;;;;11.10;3.97;;;;;;;19.41;52.19;98823.94;5033426;28;20188;-62
2022/03/30 10:18:51;;;;;;;8.67;4.10;;;;;;;19.39;52.07;98835.78;5033153;28;21013;-62
2022/03/30 10:21:35;;;;;;;7.80;3.70;;;;;;;19.38;52.56;98837.03;5015693;28;20208;-62
2022/03/30 10:24:18;;;;;;;7.50;3.80;;;;;;;19.38;52.19;98839.06;5033704;28;20183;-62
2022/03/30 10:26:58;;;;;;;4.97;3.60;;;;;;;19.37;52.32;98834.59;4996279;28;20404;-62
2022/03/30 10:29:25;;;;;;;6.80;3.70;;;;;;;19.37;52.59;98832.53;4999224;28;21000;-62
2022/03/30 10:32:21;;;;;;;7.53;3.50;;;;;;;19.38;52.46;98828.44;5033186;28;20423;-62
2022/03/30 10:35:11;;;;;;;8.90;3.63;;;;;;;19.38;52.28;98844.78;5016707;28;20509;-62
2022/03/30 10:37:43;;;;;;;6.00;3.60;;;;;;;19.37;52.29;98843.97;5023030;28;20440;-62
2022/03/30 10:40:16;;;;;;;6.60;3.90;;;;;;;19.38;52.45;98848.47;5032733;28;20490;-62
2022/03/30 10:42:47;;;;;;;12.93;4.20;;;;;;;19.40;52.32;98842.31;5032537;28;20434;-62
2022/03/30 10:45:25;;;;;;;6.67;3.73;;;;;;;19.37;52.42;98840.31;5032580;28;20969;-62
2022/03/30 10:48:09;;;;;;;7.23;4.17;;;;;;;19.39;52.72;98847.25;5032430;28;20489;-62
2022/03/30 10:50:35;;;;;;;6.70;3.90;;;;;;;19.38;52.28;98848.47;5015446;28;20834;-62
2022/03/30 10:53:01;;;;;;;7.97;4.53;;;;;;;19.35;52.35;98834.19;5033040;28;20746;-62
2022/03/30 10:55:29;;;;;;;9.63;4.90;;;;;;;19.40;52.54;98843.13;5031277;28;20426;-62
2022/03/30 10:57:58;;;;;;;9.20;4.07;;;;;;;19.40;52.60;98839.44;5032726;28;20168;-62
2022/03/30 11:00:28;;;;;;;9.83;4.13;;;;;;;19.40;52.79;98834.53;5015458;28;20558;-62
2022/03/30 11:03:08;;;;;;;7.73;4.43;;;;;;;19.41;52.41;98832.50;5032174;28;20419;-62
2022/03/30 11:05:35;;;;;;;6.57;3.73;;;;;;;19.40;52.59;98839.44;5031975;28;20419;-62
2022/03/30 11:08:03;;;;;;;7.10;4.40;;;;;;;19.42;52.37;98837.78;5032328;28;20426;-62
2022/03/30 11:10:31;;;;;;;9.47;4.60;;;;;;;19.42;52.38;98831.28;5032755;28;20391;-62
2022/03/30 11:13:02;;;;;;;8.10;4.23;;;;;;;19.40;52.31;98830.88;5032434;28;20442;-62
2022/03/30 11:15:28;;;;;;;8.80;5.30;;;;;;;19.38;52.72;98834.16;5032074;28;20407;-62
2022/03/30 11:17:56;;;;;;;10.43;5.53;;;;;;;19.38;52.80;98825.59;5032593;28;20422;-62
2022/03/30 11:20:23;;;;;;;15.43;7.03;;;;;;;19.37;52.77;98837.44;5013636;28;20458;-62
2022/03/30 11:22:49;;;;;;;14.67;7.23;;;;;;;19.38;52.78;98833.34;5014822;28;20454;-62
2022/03/30 11:25:22;;;;;;;15.93;7.17;;;;;;;19.39;52.73;98832.94;5032186;28;20502;-62
2022/03/30 11:27:57;;;;;;;10.80;7.43;;;;;;;19.41;52.73;98836.16;5032301;28;20176;-62
2022/03/30 11:30:23;;;;;;;11.70;6.47;;;;;;;19.42;53.00;98828.41;5032224;28;20414;-62
2022/03/30 11:32:52;;;;;;;14.10;6.47;;;;;;;19.40;52.89;98823.09;5032107;28;21033;-62
2022/03/30 11:35:18;;;;;;;13.20;6.80;;;;;;;19.41;53.04;98830.44;5031862;28;20822;-62